Time;durP1;ratioP1;P1;durP2;ratioP2;P2;SDS_P1;SDS_P2;PMS_P1;PMS_P2;Temp;Humidity;BMP_temperature;BMP_pressure;BME280_temperature;BME280_humidity;BME280_pressure;Samples;Min_cycle;Max_cycle;Signal;HPM_P1;HPM_P2
2023/08/31 00:00:47;;;;;;;9.90;8.20;;;;;;;20.56;67.95;98695.34;107209;1257;60238;-38
2023/08/31 00:03:14;;;;;;;9.50;8.10;;;;;;;20.57;67.76;98690.88;107189;1257;73830;-38
2023/08/31 00:05:43;;;;;;;9.20;8.20;;;;;;;20.62;67.38;98687.74;107223;1262;67630;-38
2023/08/31 00:08:14;;;;;;;11.70;8.60;;;;;;;20.63;67.30;98686.83;107216;1257;71639;-38
2023/08/31 00:10:41;;;;;;;13.50;8.80;;;;;;;20.62;67.05;98684.38;107225;1257;60345;-38
2023/08/31 00:13:09;;;;;;;12.30;8.80;;;;;;;20.59;66.84;98685.69;107240;1257;60527;-38
2023/08/31 00:15:37;;;;;;;14.20;9.40;;;;;;;20.57;66.68;98682.39;107242;1257;73884;-38
2023/08/31 00:18:04;;;;;;;14.10;9.50;;;;;;;20.54;66.41;98687.98;107228;1257;67602;-38
2023/08/31 00:20:33;;;;;;;13.40;9.60;;;;;;;20.50;66.11;98694.96;107303;1257;72707;-38
2023/08/31 00:23:01;;;;;;;14.00;9.50;;;;;;;20.47;65.88;98691.16;107222;1257;62153;-38
2023/08/31 00:25:28;;;;;;;11.30;8.80;;;;;;;20.41;65.54;98681.48;107169;1257;61095;-38
2023/08/31 00:27:57;;;;;;;14.70;9.70;;;;;;;20.48;65.35;98688.20;107211;1257;72577;-38
2023/08/31 00:30:29;;;;;;;12.50;9.30;;;;;;;20.47;65.12;98688.25;107314;1257;68053;-38
2023/08/31 00:32:59;;;;;;;13.40;10.00;;;;;;;20.44;65.02;98690.27;107249;1257;73190;-38
2023/08/31 00:35:27;;;;;;;13.20;9.80;;;;;;;20.42;64.93;98688.32;107255;1260;61334;-38
2023/08/31 00:37:58;;;;;;;12.20;9.60;;;;;;;20.38;64.82;98688.55;107197;1257;60499;-38
2023/08/31 00:40:26;;;;;;;12.60;10.00;;;;;;;20.37;64.69;98681.14;107224;1256;73864;-37
2023/08/31 00:42:53;;;;;;;11.80;9.40;;;;;;;20.34;64.88;98681.00;107209;1257;65927;-38
2023/08/31 00:45:22;;;;;;;12.60;9.50;;;;;;;20.29;65.08;98681.75;107200;1257;72757;-38
2023/08/31 00:47:49;;;;;;;14.50;10.50;;;;;;;20.25;65.23;98676.44;107184;1257;62144;-36
2023/08/31 00:50:19;;;;;;;11.30;8.80;;;;;;;20.26;65.07;98679.02;107004;1257;60401;-36
2023/08/31 00:52:47;;;;;;;11.10;9.50;;;;;;;20.29;65.01;98679.41;107023;1257;73910;-38
2023/08/31 00:55:17;;;;;;;13.60;9.90;;;;;;;20.27;65.14;98678.58;107212;1257;66869;-37
2023/08/31 00:57:45;;;;;;;12.10;8.90;;;;;;;20.25;64.90;98677.08;107147;1261;72989;-38
2023/08/31 01:00:14;;;;;;;14.30;9.70;;;;;;;20.22;64.87;98674.02;107168;1258;60473;-38
2023/08/31 01:03:06;;;;;;;11.70;10.50;;;;;;;20.21;64.97;98677.67;107214;1257;60462;-38
2023/08/31 01:05:55;;;;;;;12.00;10.00;;;;;;;20.17;64.96;98673.80;107200;1258;72605;-38
2023/08/31 01:08:35;;;;;;;11.50;9.60;;;;;;;20.13;65.03;98674.48;107175;1257;66366;-38
2023/08/31 01:11:35;;;;;;;14.10;9.90;;;;;;;20.07;65.00;98674.58;107208;1257;72736;-38
2023/08/31 01:14:08;;;;;;;11.40;9.60;;;;;;;20.01;65.06;98674.13;107094;1257;61704;-38
2023/08/31 01:16:36;;;;;;;12.20;8.90;;;;;;;20.01;65.11;98669.49;107215;1257;60307;-38
2023/08/31 01:19:06;;;;;;;12.40;9.50;;;;;;;20.00;65.13;98677.77;107226;1257;73895;-38
2023/08/31 01:21:35;;;;;;;12.70;9.60;;;;;;;19.95;64.95;98678.52;107079;1257;67010;-38
2023/08/31 01:24:03;;;;;;;12.80;9.50;;;;;;;19.91;64.99;98680.77;107056;1264;72704;-38
2023/08/31 01:26:31;;;;;;;13.70;10.00;;;;;;;19.88;65.05;98677.50;107238;1261;60217;-38
2023/08/31 01:28:59;;;;;;;14.40;9.90;;;;;;;19.86;64.82;98679.91;107103;1257;60358;-38
2023/08/31 01:31:26;;;;;;;12.70;10.00;;;;;;;19.83;64.85;98681.89;107112;1256;73910;-38
2023/08/31 01:34:35;;;;;;;12.70;10.40;;;;;;;19.80;64.93;98680.98;107198;1257;66775;-38
2023/08/31 01:41:36;;;;;;;10.40;9.00;;;;;;;19.70;64.77;98671.92;107193;1259;60486;-38
2023/08/31 01:44:04;;;;;;;13.80;9.30;;;;;;;19.70;64.73;98680.86;107134;1257;59275;-37
2023/08/31 01:46:32;;;;;;;12.90;9.60;;;;;;;19.68;64.68;98685.24;107019;1257;73872;-39
2023/08/31 01:48:59;;;;;;;12.30;9.30;;;;;;;19.65;64.77;98683.62;107036;1257;67750;-37
2023/08/31 01:51:29;;;;;;;10.90;9.60;;;;;;;19.63;64.61;98684.84;107031;1257;71859;-37
2023/08/31 01:53:58;;;;;;;12.30;9.90;;;;;;;19.60;64.57;98688.54;107178;1257;60432;-37
2023/08/31 01:56:25;;;;;;;13.60;9.50;;;;;;;19.57;64.72;98692.06;107089;1257;60360;-37
2023/08/31 01:58:53;;;;;;;12.90;9.20;;;;;;;19.55;64.50;98694.73;107081;1257;74532;-37
2023/08/31 02:01:21;;;;;;;15.00;10.00;;;;;;;19.51;64.10;98689.06;107076;1262;67883;-37
2023/08/31 02:03:48;;;;;;;12.90;9.90;;;;;;;19.48;64.07;98690.19;107046;1257;72686;-37
2023/08/31 02:06:16;;;;;;;15.10;10.00;;;;;;;19.45;63.84;98692.70;107185;1257;60201;-37
2023/08/31 02:08:47;;;;;;;17.10;10.10;;;;;;;19.41;63.62;98691.21;107239;1257;60466;-37
2023/08/31 02:11:17;;;;;;;12.50;9.80;;;;;;;19.38;63.37;98685.89;107228;1257;72604;-37
2023/08/31 02:13:45;;;;;;;11.40;9.30;;;;;;;19.34;63.29;98687.64;107142;1257;67595;-37
2023/08/31 02:16:13;;;;;;;14.10;9.50;;;;;;;19.36;63.11;98687.21;107097;1257;72765;-38
2023/08/31 02:18:40;;;;;;;16.10;9.30;;;;;;;19.40;63.09;98686.00;107222;1261;60565;-38
2023/08/31 02:21:08;;;;;;;11.30;8.80;;;;;;;19.42;62.84;98686.56;107057;1256;60322;-38
2023/08/31 02:23:35;;;;;;;13.10;9.10;;;;;;;19.42;62.55;98687.66;107119;1257;73122;-38
2023/08/31 02:26:03;;;;;;;17.30;9.70;;;;;;;19.42;62.47;98694.27;107262;1257;67817;-38
2023/08/31 02:28:30;;;;;;;12.60;9.60;;;;;;;19.40;62.32;98689.77;107222;1260;71390;-38
2023/08/31 02:30:59;;;;;;;14.30;9.10;;;;;;;19.39;62.17;98689.70;107256;1257;60956;-38
2023/08/31 02:33:30;;;;;;;13.90;8.40;;;;;;;19.38;61.79;98688.16;107243;1256;60417;-38
2023/08/31 02:35:58;;;;;;;11.20;9.00;;;;;;;19.37;61.74;98693.13;107115;1257;73474;-38
2023/08/31 02:38:26;;;;;;;14.30;8.40;;;;;;;19.36;61.29;98696.88;107238;1257;67587;-37
2023/08/31 02:40:53;;;;;;;14.70;9.00;;;;;;;19.35;61.00;98696.91;107195;1257;72492;-37
2023/08/31 02:43:21;;;;;;;15.70;9.60;;;;;;;19.32;60.45;98691.70;107174;1257;60482;-37
2023/08/31 02:45:49;;;;;;;13.20;8.80;;;;;;;19.31;60.24;98694.65;107176;1257;60297;-37
2023/08/31 02:48:16;;;;;;;14.00;8.30;;;;;;;19.30;60.29;98695.45;107031;1257;73852;-37
2023/08/31 02:50:44;;;;;;;13.20;8.40;;;;;;;19.29;59.89;98697.13;107199;1263;67570;-37
2023/08/31 02:53:12;;;;;;;11.60;8.90;;;;;;;19.28;59.93;98693.55;107021;1257;71536;-37
2023/08/31 02:55:42;;;;;;;12.80;8.60;;;;;;;19.28;60.18;98691.50;107220;1263;60054;-37
2023/08/31 02:58:10;;;;;;;14.20;8.80;;;;;;;19.26;59.64;98687.15;107103;1257;60450;-38
2023/08/31 03:00:42;;;;;;;12.10;7.70;;;;;;;19.25;59.21;98684.77;107105;1257;73244;-38
2023/08/31 03:03:10;;;;;;;11.30;8.40;;;;;;;19.25;59.37;98691.13;107071;1257;66424;-38
2023/08/31 03:05:38;;;;;;;15.40;8.80;;;;;;;19.24;59.00;98692.17;107534;1255;71372;-38
2023/08/31 03:08:06;;;;;;;12.60;8.30;;;;;;;19.21;58.71;98693.18;107493;1254;60345;-38
2023/08/31 03:10:35;;;;;;;13.40;8.00;;;;;;;19.20;58.55;98691.65;107556;1254;59673;-38
2023/08/31 03:13:03;;;;;;;12.50;8.60;;;;;;;19.18;58.48;98693.88;107520;1254;73862;-38
2023/08/31 03:15:34;;;;;;;12.20;7.40;;;;;;;19.17;58.35;98697.28;107526;1254;67728;-35
2023/08/31 03:18:02;;;;;;;14.30;8.70;;;;;;;19.17;58.38;98694.94;107449;1258;71153;-37
2023/08/31 03:20:29;;;;;;;10.80;7.90;;;;;;;19.17;58.53;98698.92;107347;1254;60547;-37
2023/08/31 03:22:59;;;;;;;10.10;5.80;;;;;;;19.15;58.67;98696.56;107467;1254;60518;-37
2023/08/31 03:25:27;;;;;;;12.40;7.50;;;;;;;19.16;58.47;98699.08;107490;1258;73875;-38
2023/08/31 03:27:55;;;;;;;10.70;8.00;;;;;;;19.17;58.20;98704.08;107500;1254;67576;-38
2023/08/31 03:30:22;;;;;;;13.00;7.60;;;;;;;19.16;58.17;98703.69;107486;1254;72011;-38
2023/08/31 03:32:50;;;;;;;12.80;7.90;;;;;;;19.16;57.95;98704.02;107484;1254;60355;-38
2023/08/31 03:35:18;;;;;;;15.70;8.30;;;;;;;19.16;57.70;98700.17;107477;1254;60453;-39
2023/08/31 03:37:49;;;;;;;10.20;7.60;;;;;;;19.15;57.58;98700.18;107515;1258;72694;-39
2023/08/31 03:40:16;;;;;;;11.80;7.70;;;;;;;19.14;57.93;98704.06;107511;1254;66287;-37
2023/08/31 03:42:44;;;;;;;11.10;7.90;;;;;;;19.12;58.17;98701.12;107478;1254;71105;-38
2023/08/31 03:45:12;;;;;;;13.10;8.30;;;;;;;19.12;58.07;98701.15;107467;1254;60559;-38
2023/08/31 03:47:39;;;;;;;12.90;7.60;;;;;;;19.10;58.07;98703.84;107499;1254;60216;-38
2023/08/31 03:50:08;;;;;;;14.30;8.50;;;;;;;19.09;58.27;98698.59;107480;1253;71811;-38
2023/08/31 03:52:36;;;;;;;11.10;7.40;;;;;;;19.07;58.41;98690.41;107538;1259;66604;-38
2023/08/31 03:55:04;;;;;;;14.40;8.00;;;;;;;19.04;58.76;98690.64;107438;1254;72688;-38
2023/08/31 03:57:32;;;;;;;12.90;8.20;;;;;;;19.03;59.03;98695.36;107376;1253;59701;-38
2023/08/31 04:00:12;;;;;;;15.30;8.30;;;;;;;19.02;59.31;98698.39;107492;1254;60300;-38
2023/08/31 04:02:44;;;;;;;13.70;8.20;;;;;;;19.03;59.18;98695.55;107464;1254;73873;-38
2023/08/31 04:05:15;;;;;;;13.00;8.60;;;;;;;19.04;59.16;98691.75;107517;1259;65367;-38
2023/08/31 04:07:44;;;;;;;15.50;8.90;;;;;;;19.05;59.44;98702.56;107569;1254;71463;-38
2023/08/31 04:10:11;;;;;;;17.40;9.30;;;;;;;19.04;59.81;98705.71;107577;1254;60339;-38
2023/08/31 04:12:39;;;;;;;12.00;7.90;;;;;;;19.04;59.99;98704.84;107479;1259;60357;-38
2023/08/31 04:15:08;;;;;;;14.10;8.60;;;;;;;19.06;59.95;98708.73;107488;1259;72573;-37
2023/08/31 04:17:36;;;;;;;13.70;8.30;;;;;;;19.09;59.53;98704.09;107417;1254;66749;-38
2023/08/31 04:20:05;;;;;;;13.30;8.30;;;;;;;19.12;59.27;98704.66;107487;1254;72671;-38
2023/08/31 04:22:33;;;;;;;11.10;8.10;;;;;;;19.15;58.96;98716.19;107521;1254;60463;-38
2023/08/31 04:25:00;;;;;;;10.40;8.00;;;;;;;19.13;59.07;98714.92;107633;1254;59610;-38
2023/08/31 04:27:30;;;;;;;13.50;8.00;;;;;;;19.22;59.14;98720.95;107605;1255;72551;-36
2023/08/31 04:30:02;;;;;;;12.40;8.00;;;;;;;19.26;58.88;98719.52;107612;1254;68141;-38
2023/08/31 04:32:30;;;;;;;13.70;7.50;;;;;;;19.30;58.66;98720.68;107495;1254;72707;-37
2023/08/31 04:34:58;;;;;;;11.60;7.30;;;;;;;19.33;58.80;98716.73;107482;1254;60418;-38
2023/08/31 04:37:25;;;;;;;11.90;7.70;;;;;;;19.39;59.02;98714.77;107499;1254;60447;-38
2023/08/31 04:39:53;;;;;;;14.70;7.40;;;;;;;19.44;59.35;98719.36;107599;1254;73884;-38
2023/08/31 04:42:20;;;;;;;15.50;8.40;;;;;;;19.47;59.63;98721.47;107489;1254;66357;-38
2023/08/31 04:44:48;;;;;;;12.30;7.20;;;;;;;19.51;59.94;98721.14;107555;1258;71414;-38
2023/08/31 04:47:16;;;;;;;15.20;7.90;;;;;;;19.56;60.23;98721.64;107603;1254;60386;-38
2023/08/31 04:49:43;;;;;;;13.00;7.60;;;;;;;19.64;60.55;98723.68;107491;1254;60362;-38
2023/08/31 04:52:11;;;;;;;13.00;7.80;;;;;;;19.74;60.76;98724.51;107488;1254;73862;-38
2023/08/31 04:54:39;;;;;;;15.30;8.30;;;;;;;19.80;60.78;98723.23;107632;1254;66321;-38
2023/08/31 04:57:07;;;;;;;16.40;7.80;;;;;;;19.87;60.93;98724.05;107525;1254;72666;-38
2023/08/31 04:59:35;;;;;;;15.10;7.60;;;;;;;19.94;60.48;98727.46;107580;1254;60325;-38
2023/08/31 05:02:02;;;;;;;11.40;7.80;;;;;;;20.03;60.02;98725.25;107546;1254;60460;-38
2023/08/31 05:04:30;;;;;;;16.00;7.60;;;;;;;20.11;59.57;98725.70;107493;1258;74010;-38
2023/08/31 05:06:58;;;;;;;11.10;7.00;;;;;;;20.18;59.21;98725.50;107598;1254;67794;-38
2023/08/31 05:09:26;;;;;;;13.00;7.90;;;;;;;20.25;58.50;98725.85;107487;1253;71747;-38
2023/08/31 05:11:54;;;;;;;10.80;7.60;;;;;;;20.31;57.98;98723.08;107496;1254;60415;-38
2023/08/31 05:14:21;;;;;;;14.90;7.60;;;;;;;20.37;57.42;98722.66;107607;1259;60431;-38
2023/08/31 05:16:49;;;;;;;10.70;7.20;;;;;;;20.43;56.73;98724.45;107565;1254;72621;-38
2023/08/31 05:19:17;;;;;;;12.70;7.30;;;;;;;20.47;56.92;98723.48;107504;1254;67597;-38
2023/08/31 05:21:44;;;;;;;10.10;7.20;;;;;;;20.50;56.55;98729.89;107479;1259;72807;-38
2023/08/31 05:24:12;;;;;;;10.50;7.60;;;;;;;20.55;56.41;98732.09;107643;1259;60392;-40
2023/08/31 05:26:39;;;;;;;12.60;7.30;;;;;;;20.60;56.33;98732.73;107502;1254;60140;-36
2023/08/31 05:29:07;;;;;;;10.30;7.20;;;;;;;20.66;56.58;98736.79;107480;1254;73843;-38
2023/08/31 05:31:35;;;;;;;10.00;7.00;;;;;;;20.71;56.08;98741.59;107491;1254;67196;-38
2023/08/31 05:34:02;;;;;;;12.30;7.30;;;;;;;20.74;55.88;98745.26;107492;1254;71152;-38
2023/08/31 05:36:30;;;;;;;13.90;7.50;;;;;;;20.78;55.48;98749.15;107506;1254;60437;-38
2023/08/31 05:38:58;;;;;;;11.50;7.30;;;;;;;20.80;55.47;98749.65;107481;1254;60349;-38
2023/08/31 05:41:26;;;;;;;13.30;7.10;;;;;;;20.84;55.46;98755.41;107507;1254;72547;-38
2023/08/31 05:43:54;;;;;;;14.40;7.50;;;;;;;20.90;55.52;98754.58;107498;1257;67560;-38
2023/08/31 05:48:48;;;;;;;12.40;7.80;;;;;;;21.02;55.67;98758.44;104151;1292;600281;-38
2023/08/31 05:51:16;;;;;;;14.30;7.50;;;;;;;21.09;55.35;98761.45;106644;1267;60089;-38
2023/08/31 05:53:43;;;;;;;10.60;7.40;;;;;;;21.16;55.25;98761.40;106694;1267;59251;-38
2023/08/31 05:56:11;;;;;;;13.40;7.90;;;;;;;21.23;55.25;98762.10;106617;1267;72243;-38
2023/08/31 05:58:38;;;;;;;14.90;7.30;;;;;;;21.30;54.83;98759.20;106642;1266;66769;-38
2023/08/31 06:01:07;;;;;;;15.00;7.20;;;;;;;21.36;55.03;98760.63;106628;1267;72716;-38
2023/08/31 06:03:35;;;;;;;14.10;7.10;;;;;;;21.43;54.92;98761.98;106644;1263;200056;-37
2023/08/31 06:06:03;;;;;;;15.70;7.80;;;;;;;21.50;54.83;98767.62;106810;1263;60025;-37
2023/08/31 06:08:31;;;;;;;12.00;7.40;;;;;;;21.59;54.69;98772.29;106844;1263;72256;-38
2023/08/31 06:10:58;;;;;;;11.00;7.00;;;;;;;21.68;54.18;98773.06;106822;1263;67984;-38
2023/08/31 06:13:27;;;;;;;9.40;6.60;;;;;;;21.73;52.96;98774.48;106818;1263;72656;-38
2023/08/31 06:15:57;;;;;;;13.90;7.10;;;;;;;21.75;53.49;98773.35;106871;1263;60048;-38
2023/08/31 06:18:26;;;;;;;10.70;7.00;;;;;;;21.81;53.90;98776.23;106851;1263;60015;-38
2023/08/31 06:20:53;;;;;;;14.40;7.00;;;;;;;21.88;53.91;98774.65;106858;1263;71841;-38
2023/08/31 06:23:21;;;;;;;12.70;7.30;;;;;;;21.94;53.45;98777.02;106822;1264;67553;-38
2023/08/31 06:25:48;;;;;;;10.90;6.90;;;;;;;22.03;53.39;98783.90;106797;1264;72504;-38
2023/08/31 06:28:16;;;;;;;9.60;6.20;;;;;;;22.12;53.10;98784.04;106846;1264;60225;-38
2023/08/31 06:30:46;;;;;;;13.30;7.30;;;;;;;22.23;52.82;98782.55;107265;1256;60002;-38
2023/08/31 06:33:15;;;;;;;13.90;7.10;;;;;;;22.32;52.92;98785.90;107324;1256;73108;-38
2023/08/31 06:35:48;;;;;;;14.90;6.70;;;;;;;22.41;52.86;98784.75;107319;1257;67561;-38
2023/08/31 06:38:15;;;;;;;12.80;7.00;;;;;;;22.51;52.80;98788.39;107259;1257;72721;-38
2023/08/31 06:40:43;;;;;;;13.00;6.80;;;;;;;22.59;52.13;98783.83;107331;1255;59729;-38
2023/08/31 06:43:11;;;;;;;11.80;6.50;;;;;;;22.66;51.83;98786.95;107303;1257;59647;-38
2023/08/31 06:45:40;;;;;;;15.40;6.70;;;;;;;22.72;51.63;98791.08;107255;1260;72797;-39
2023/08/31 06:48:08;;;;;;;14.20;6.80;;;;;;;22.78;51.73;98793.29;107383;1258;68339;-39
2023/08/31 06:50:36;;;;;;;16.20;7.10;;;;;;;22.85;51.80;98791.58;107311;1256;72729;-37
2023/08/31 06:53:04;;;;;;;12.40;6.70;;;;;;;22.95;51.46;98792.92;107296;1256;60066;-37
2023/08/31 06:55:32;;;;;;;12.70;6.60;;;;;;;23.07;51.59;98793.56;107318;1257;60522;-37
2023/08/31 06:58:02;;;;;;;12.00;7.20;;;;;;;23.18;51.16;98790.89;107281;1255;73129;-37
2023/08/31 07:00:29;;;;;;;15.00;6.80;;;;;;;23.25;50.37;98790.95;107320;1257;66975;-37
2023/08/31 07:02:57;;;;;;;11.30;6.80;;;;;;;23.32;50.60;98798.59;107422;1257;71465;-37
2023/08/31 07:05:26;;;;;;;13.30;6.40;;;;;;;23.40;50.52;98797.63;107246;1257;60037;-37
2023/08/31 07:07:54;;;;;;;14.30;6.70;;;;;;;23.50;50.66;98794.85;107274;1257;59663;-37
2023/08/31 07:10:22;;;;;;;15.70;6.70;;;;;;;23.61;50.52;98791.45;107274;1260;71799;-37
2023/08/31 07:12:49;;;;;;;16.40;7.70;;;;;;;23.71;50.28;98794.10;107271;1257;67701;-38
2023/08/31 07:15:17;;;;;;;21.90;13.40;;;;;;;23.79;49.79;98798.40;107264;1257;72651;-38
2023/08/31 07:17:44;;;;;;;13.40;7.40;;;;;;;23.87;50.03;98795.53;107279;1257;60286;-38
2023/08/31 07:20:12;;;;;;;13.60;7.10;;;;;;;23.98;49.83;98799.19;107247;1257;59601;-38
2023/08/31 07:22:40;;;;;;;13.00;7.20;;;;;;;24.09;49.80;98797.82;107205;1257;72164;-38
2023/08/31 07:25:08;;;;;;;12.80;6.30;;;;;;;24.20;49.41;98796.84;107188;1258;66365;-38
2023/08/31 07:27:36;;;;;;;16.00;6.60;;;;;;;24.34;49.09;98796.52;107272;1257;72646;-39
2023/08/31 07:30:06;;;;;;;12.90;6.70;;;;;;;24.46;48.84;98794.71;107220;1261;59626;-38
2023/08/31 07:32:33;;;;;;;11.10;6.60;;;;;;;24.56;48.13;98797.54;107280;1261;60031;-39
2023/08/31 07:35:03;;;;;;;17.90;6.20;;;;;;;24.68;48.34;98799.77;107278;1257;73038;-39
2023/08/31 07:37:32;;;;;;;21.10;7.10;;;;;;;24.82;48.47;98804.03;107280;1257;67609;-39
2023/08/31 07:39:59;;;;;;;14.30;6.60;;;;;;;24.88;48.24;98783.71;107217;1257;73481;-38
2023/08/31 07:42:27;;;;;;;17.50;6.40;;;;;;;25.12;47.31;98798.70;107205;1256;60071;-37
2023/08/31 07:44:55;;;;;;;17.00;7.00;;;;;;;25.24;47.05;98793.41;107244;1257;59749;-39
2023/08/31 07:47:23;;;;;;;17.60;6.40;;;;;;;25.36;46.52;98792.28;107294;1256;71778;-39
2023/08/31 07:49:51;;;;;;;15.50;6.30;;;;;;;25.45;46.08;98789.19;107239;1260;67541;-39
2023/08/31 07:52:19;;;;;;;15.90;5.80;;;;;;;25.54;46.17;98786.46;107312;1257;72668;-38
2023/08/31 07:54:46;;;;;;;14.90;6.60;;;;;;;25.66;46.26;98786.16;107221;1257;59609;-38
2023/08/31 07:57:14;;;;;;;13.40;5.90;;;;;;;25.80;45.87;98787.84;107268;1257;60003;-38
2023/08/31 07:59:42;;;;;;;24.90;9.30;;;;;;;25.91;45.67;98790.17;107039;1256;73113;-38
2023/08/31 08:02:09;;;;;;;17.10;6.20;;;;;;;26.04;45.02;98792.33;107221;1261;66914;-38
2023/08/31 08:04:37;;;;;;;21.90;5.90;;;;;;;26.14;44.39;98784.17;107226;1257;72710;-38
2023/08/31 08:07:06;;;;;;;13.50;5.50;;;;;;;26.22;43.92;98782.11;107161;1257;59685;-38
2023/08/31 08:09:33;;;;;;;18.90;5.50;;;;;;;26.25;44.17;98783.02;107205;1262;59524;-38
2023/08/31 08:12:01;;;;;;;18.00;5.30;;;;;;;26.27;44.32;98784.23;107195;1257;72722;-38
2023/08/31 08:14:29;;;;;;;14.70;5.50;;;;;;;26.27;44.32;98777.80;107217;1257;66424;-38
2023/08/31 08:16:56;;;;;;;14.30;5.80;;;;;;;26.30;43.70;98774.22;107254;1257;73137;-39
2023/08/31 08:19:24;;;;;;;29.20;6.90;;;;;;;26.39;44.08;98778.34;107255;1256;60178;-40
2023/08/31 08:21:52;;;;;;;13.10;5.10;;;;;;;26.50;44.04;98779.73;107241;1256;60022;-39
2023/08/31 08:24:20;;;;;;;51.20;8.20;;;;;;;26.61;43.98;98779.27;107147;1256;73401;-38
2023/08/31 08:26:48;;;;;;;15.60;5.50;;;;;;;26.74;43.37;98779.81;107176;1257;67907;-38
2023/08/31 08:29:15;;;;;;;11.30;5.10;;;;;;;26.87;42.16;98778.76;107210;1257;72693;-38
2023/08/31 08:31:43;;;;;;;19.30;6.00;;;;;;;26.98;41.76;98778.72;107257;1260;60154;-39
2023/08/31 08:34:10;;;;;;;13.40;5.10;;;;;;;27.06;41.52;98775.35;107225;1256;59485;-38
2023/08/31 08:36:38;;;;;;;12.20;5.00;;;;;;;27.16;41.50;98778.41;107236;1258;73025;-38
2023/08/31 08:39:06;;;;;;;14.40;4.90;;;;;;;27.26;41.33;98781.52;107193;1257;66607;-39
2023/08/31 08:41:34;;;;;;;11.30;4.80;;;;;;;27.33;41.57;98779.80;107235;1257;72697;-39
2023/08/31 08:44:03;;;;;;;12.50;4.90;;;;;;;27.38;41.33;98781.22;107142;1257;59863;-39
2023/08/31 08:46:31;;;;;;;16.20;5.50;;;;;;;27.45;41.19;98779.09;107212;1257;59522;-42
2023/08/31 08:49:01;;;;;;;16.60;5.10;;;;;;;27.55;41.82;98782.52;107295;1256;73030;-42
2023/08/31 08:51:31;;;;;;;17.20;4.50;;;;;;;27.69;40.62;98779.90;107283;1257;67582;-41
2023/08/31 08:54:00;;;;;;;11.90;5.20;;;;;;;27.80;40.04;98781.90;107264;1257;72709;-42
2023/08/31 08:56:27;;;;;;;7.60;4.80;;;;;;;27.86;39.31;98784.89;107320;1257;59736;-41
2023/08/31 08:58:56;;;;;;;12.60;4.90;;;;;;;27.90;39.99;98777.89;107205;1258;60023;-42
2023/08/31 09:01:23;;;;;;;14.40;4.80;;;;;;;28.01;39.45;98775.84;107268;1257;71734;-41
2023/08/31 09:03:51;;;;;;;13.60;4.50;;;;;;;28.11;39.13;98776.77;107013;1257;67649;-42
2023/08/31 09:06:20;;;;;;;14.20;4.80;;;;;;;28.22;39.37;98782.39;107338;1257;71385;-42
2023/08/31 09:08:57;;;;;;;7.90;4.00;;;;;;;28.38;39.11;98785.68;107293;1258;60095;-41
2023/08/31 09:11:25;;;;;;;9.70;4.30;;;;;;;28.58;37.81;98785.92;107338;1257;60033;-42
2023/08/31 09:13:53;;;;;;;9.90;3.90;;;;;;;28.68;36.76;98786.41;107230;1257;73223;-42
2023/08/31 09:16:28;;;;;;;10.70;4.00;;;;;;;28.77;36.65;98787.62;107255;1257;66650;-43
2023/08/31 09:18:56;;;;;;;11.50;4.20;;;;;;;28.91;36.62;98784.83;107284;1258;71742;-43
2023/08/31 09:21:35;;;;;;;9.70;3.50;;;;;;;29.07;36.48;98784.91;107266;1256;59612;-43
2023/08/31 09:24:07;;;;;;;11.80;4.10;;;;;;;29.27;36.49;98784.77;107273;1257;59611;-44
2023/08/31 09:26:40;;;;;;;11.90;4.30;;;;;;;29.45;36.27;98778.47;107253;1256;73071;-44
2023/08/31 09:29:08;;;;;;;13.80;4.50;;;;;;;29.57;36.51;98778.52;107328;1257;67992;-44
2023/08/31 09:31:35;;;;;;;7.50;4.00;;;;;;;29.68;36.95;98777.48;107240;1256;72645;-43
2023/08/31 09:34:03;;;;;;;15.10;5.00;;;;;;;29.83;36.57;98780.27;107242;1256;60540;-44
2023/08/31 09:36:31;;;;;;;13.30;4.50;;;;;;;29.95;36.62;98775.39;107265;1261;59496;-43
2023/08/31 09:38:59;;;;;;;10.10;3.90;;;;;;;30.09;35.99;98779.63;107266;1257;71781;-43
2023/08/31 09:41:26;;;;;;;13.10;4.30;;;;;;;30.17;35.25;98780.56;107278;1257;66323;-43
2023/08/31 09:43:54;;;;;;;11.30;4.00;;;;;;;30.21;35.18;98778.12;107298;1260;71906;-44
2023/08/31 09:46:22;;;;;;;8.60;4.10;;;;;;;30.30;35.42;98771.77;107285;1260;60098;-43
2023/08/31 09:48:49;;;;;;;12.20;4.30;;;;;;;30.46;35.41;98777.08;107199;1257;60027;-43
2023/08/31 09:51:19;;;;;;;8.30;4.60;;;;;;;30.57;34.61;98777.54;107341;1254;73048;-43
2023/08/31 09:53:47;;;;;;;16.60;4.20;;;;;;;30.56;34.76;98778.91;107321;1254;67627;-44
2023/08/31 09:56:18;;;;;;;14.00;4.40;;;;;;;30.55;34.90;98779.78;107548;1254;71929;-43
2023/08/31 09:58:45;;;;;;;11.90;4.30;;;;;;;30.52;34.69;98771.65;107571;1254;60513;-43
2023/08/31 10:01:13;;;;;;;12.00;4.10;;;;;;;30.53;35.17;98770.80;107464;1252;60511;-43
2023/08/31 10:03:55;;;;;;;10.00;4.20;;;;;;;30.55;34.85;98776.73;107488;1254;73812;-45
2023/08/31 10:06:23;;;;;;;14.90;4.10;;;;;;;30.52;34.84;98776.13;107474;1254;66616;-44
2023/08/31 10:08:51;;;;;;;10.30;4.00;;;;;;;30.52;35.30;98778.55;107656;1254;72652;-44
2023/08/31 10:11:18;;;;;;;15.60;4.30;;;;;;;30.55;35.43;98780.50;107595;1254;60339;-45
2023/08/31 10:13:46;;;;;;;8.70;3.60;;;;;;;30.61;35.10;98781.45;107595;1254;60274;-43
2023/08/31 10:16:15;;;;;;;13.90;3.50;;;;;;;30.67;35.28;98781.35;107347;1254;73894;-43
2023/08/31 10:18:43;;;;;;;;;;;;;;;30.77;34.98;98781.03;107458;1254;67684;-42
2023/08/31 10:21:10;;;;;;;14.60;4.60;;;;;;;30.83;35.19;98776.95;107477;1254;71407;-42
2023/08/31 10:23:44;;;;;;;8.50;3.80;;;;;;;30.88;34.92;98776.63;107460;1253;60573;-44
2023/08/31 10:26:12;;;;;;;10.40;4.00;;;;;;;30.86;34.92;98779.54;107587;1254;59675;-44
2023/08/31 10:28:41;;;;;;;11.40;4.00;;;;;;;30.84;35.06;98778.02;107337;1254;72390;-43
2023/08/31 10:31:10;;;;;;;120.10;9.90;;;;;;;30.83;35.28;98774.46;107622;1254;67585;-43
2023/08/31 10:33:42;;;;;;;10.90;4.20;;;;;;;30.81;35.39;98780.00;107688;1256;70880;-43
2023/08/31 10:36:14;;;;;;;7.00;3.90;;;;;;;30.78;35.27;98774.22;107612;1254;60566;-43
2023/08/31 10:38:44;;;;;;;13.60;3.80;;;;;;;30.75;35.21;98774.47;107497;1255;60335;-44
2023/08/31 10:41:12;;;;;;;9.90;3.60;;;;;;;30.78;35.47;98777.62;107533;1254;72499;-44
2023/08/31 10:43:50;;;;;;;8.60;3.90;;;;;;;30.87;35.41;98775.16;107547;1254;66893;-44
2023/08/31 10:46:34;;;;;;;7.30;3.70;;;;;;;30.95;35.59;98772.25;107590;1254;72011;-45
2023/08/31 10:49:11;;;;;;;9.30;3.70;;;;;;;31.10;36.06;98768.16;107582;1254;60206;-44
2023/08/31 10:51:59;;;;;;;11.90;4.10;;;;;;;31.30;35.19;98776.45;107545;1254;60398;-44
2023/08/31 10:54:34;;;;;;;8.00;3.90;;;;;;;31.40;34.45;98780.89;107445;1254;73851;-44
2023/08/31 10:57:04;;;;;;;14.30;4.30;;;;;;;31.46;34.73;98781.46;107571;1254;66278;-44
2023/08/31 10:59:47;;;;;;;8.10;3.80;;;;;;;31.56;34.57;98779.65;107601;1254;72662;-41
2023/08/31 11:02:33;;;;;;;8.60;4.00;;;;;;;31.74;34.09;98773.66;107580;1255;60328;-41
2023/08/31 11:05:08;;;;;;;13.30;3.40;;;;;;;31.84;33.23;98769.38;107601;1256;60351;-41
2023/08/31 11:07:37;;;;;;;11.00;3.80;;;;;;;31.90;33.12;98772.41;107715;1254;73817;-41
2023/08/31 11:10:16;;;;;;;8.80;3.70;;;;;;;31.92;33.32;98777.43;107674;1254;66383;-41
2023/08/31 11:12:45;;;;;;;13.50;4.00;;;;;;;32.03;33.18;98775.38;107579;1254;72712;-41
2023/08/31 11:15:15;;;;;;;11.20;3.70;;;;;;;32.20;33.47;98773.04;107585;1254;60357;-41
2023/08/31 11:17:43;;;;;;;10.40;3.50;;;;;;;32.37;32.54;98774.39;107619;1252;60219;-41
2023/08/31 11:20:15;;;;;;;9.00;3.90;;;;;;;32.48;32.72;98768.07;107718;1254;73918;-41
2023/08/31 11:22:44;;;;;;;11.10;3.60;;;;;;;32.64;32.67;98762.79;107676;1254;66592;-41
2023/08/31 11:25:12;;;;;;;8.60;3.60;;;;;;;32.85;32.12;98762.59;107626;1254;72701;-41
2023/08/31 11:27:40;;;;;;;10.10;4.10;;;;;;;33.00;32.28;98756.05;107637;1254;60325;-41
2023/08/31 11:30:14;;;;;;;15.40;4.40;;;;;;;33.23;31.66;98759.39;107602;1252;60434;-41
2023/08/31 11:32:46;;;;;;;25.30;5.70;;;;;;;33.47;31.70;98756.85;107628;1252;73209;-41